Time;durP1;ratioP1;P1;durP2;ratioP2;P2;SDS_P1;SDS_P2;PMS_P1;PMS_P2;Temp;Humidity;BMP_temperature;BMP_pressure;BME280_temperature;BME280_humidity;BME280_pressure;Samples;Min_cycle;Max_cycle;Signal;HPM_P1;HPM_P2
2022/06/06 00:01:43;;;;;;;30.88;19.15;;;17.00;99.90;;;-144.05;83.46;125687.94;6193476;23;20031;-84
2022/06/06 00:04:10;;;;;;;34.67;19.70;;;17.00;99.90;;;-144.05;83.20;125687.94;6193071;23;20005;-88
2022/06/06 00:06:39;;;;;;;37.55;20.25;;;17.00;99.90;;;-144.05;83.06;125687.94;6192379;23;20099;-88
2022/06/06 00:09:08;;;;;;;34.25;21.42;;;17.00;99.90;;;-144.05;83.39;125687.94;6193577;23;20017;-88
2022/06/06 00:11:36;;;;;;;32.13;20.80;;;17.00;99.90;;;-144.05;82.90;125687.94;6194018;23;20016;-88
2022/06/06 00:14:04;;;;;;;41.20;25.42;;;17.00;99.90;;;-144.05;82.72;125687.94;6193850;23;20032;-86
2022/06/06 00:16:31;;;;;;;42.75;25.90;;;16.90;99.90;;;-144.05;82.17;125687.94;6194895;23;20013;-89
2022/06/06 00:18:57;;;;;;;48.72;26.83;;;17.00;99.90;;;-144.05;81.05;125687.94;6193797;23;20009;-83
2022/06/06 00:21:25;;;;;;;44.90;27.75;;;17.00;99.90;;;-144.05;81.38;125687.94;6193330;23;20064;-87
2022/06/06 00:23:53;;;;;;;47.08;29.45;;;16.90;99.90;;;-144.05;81.57;125687.94;6193328;23;20001;-84
2022/06/06 00:26:19;;;;;;;39.50;26.73;;;16.90;99.90;;;-144.05;81.66;125687.94;6193706;23;20342;-84
2022/06/06 00:28:49;;;;;;;48.80;28.25;;;16.90;99.90;;;-144.05;81.54;125687.94;6193638;23;20011;-85
2022/06/06 00:36:45;;;;;;;52.83;31.77;;;16.80;99.90;;;-144.05;79.61;125687.94;6219427;23;20407;-88
2022/06/06 00:39:16;;;;;;;49.38;30.80;;;16.80;99.90;;;-144.05;80.27;125687.94;6192660;23;20009;-84
2022/06/06 00:41:49;;;;;;;44.35;30.65;;;16.70;99.90;;;-144.05;80.22;125687.94;6192889;23;20008;-86
2022/06/06 00:44:19;;;;;;;51.30;32.65;;;16.70;99.90;;;-144.05;79.90;125687.94;6193051;23;20104;-87
2022/06/06 00:47:04;;;;;;;51.90;32.38;;;16.70;99.90;;;-144.05;78.86;125687.94;6193196;23;20005;-87
2022/06/06 00:49:59;;;;;;;53.63;34.05;;;16.60;99.90;;;-144.05;78.23;125687.94;6166939;23;20510;-85
2022/06/06 00:52:35;;;;;;;55.08;35.13;;;16.60;99.90;;;-144.05;78.43;125687.94;6187859;23;20013;-85
2022/06/06 00:55:13;;;;;;;57.53;36.35;;;16.50;99.90;;;-144.05;78.42;125687.94;6163408;23;20005;-86
2022/06/06 00:57:52;;;;;;;64.13;38.67;;;16.40;99.90;;;-144.05;78.66;125687.94;6164025;23;20017;-88
2022/06/06 01:00:23;;;;;;;67.80;40.00;;;16.40;99.90;;;-144.05;78.75;125687.94;6162700;23;20035;-84
2022/06/06 01:02:56;;;;;;;62.53;39.58;;;16.30;99.90;;;-144.05;79.24;125687.94;6162446;23;20008;-87
2022/06/06 01:05:25;;;;;;;60.90;37.13;;;16.30;99.90;;;-144.05;79.18;125687.94;6163214;23;20009;-86
2022/06/06 01:07:51;;;;;;;60.28;38.50;;;16.20;99.90;;;-144.05;78.73;125687.94;6162876;23;20021;-87
2022/06/06 01:10:18;;;;;;;61.00;36.92;;;16.20;99.90;;;-144.05;78.69;125687.94;6162175;23;20040;-87
2022/06/06 01:12:51;;;;;;;56.42;35.13;;;16.10;99.90;;;-144.05;78.00;125687.94;6162388;23;20009;-85
2022/06/06 01:15:24;;;;;;;59.47;35.10;;;16.10;99.90;;;-144.05;78.18;125687.94;6163156;23;20009;-85
2022/06/06 01:18:15;;;;;;;56.25;35.05;;;16.00;99.90;;;-144.05;78.75;125687.94;6163993;23;20009;-85
2022/06/06 01:21:04;;;;;;;58.10;35.05;;;16.00;99.90;;;-144.05;78.77;125687.94;6163119;23;20029;-84
2022/06/06 01:24:09;;;;;;;60.03;33.58;;;15.90;99.90;;;-144.05;78.82;125687.94;6164674;23;20040;-86
2022/06/06 01:27:26;;;;;;;52.65;32.72;;;15.90;99.90;;;-144.05;78.57;125687.94;6163323;23;20009;-86
2022/06/06 01:30:05;;;;;;;49.35;30.25;;;15.90;99.90;;;-144.05;78.34;125687.94;6127133;23;20012;-83
2022/06/06 01:32:46;;;;;;;50.20;30.00;;;15.80;99.90;;;-144.05;78.36;125687.94;6164404;23;20036;-86
2022/06/06 01:35:35;;;;;;;54.67;31.20;;;15.80;99.90;;;-144.05;78.61;125687.94;6164852;23;20085;-89
2022/06/06 01:38:03;;;;;;;51.67;29.73;;;15.80;99.90;;;-144.05;78.40;125687.94;6168089;23;20019;-81
2022/06/06 01:41:03;;;;;;;52.95;30.73;;;15.80;99.90;;;-144.05;78.80;125687.94;6186834;23;20009;-83
2022/06/06 01:43:48;;;;;;;57.15;30.73;;;15.80;99.90;;;-144.05;78.53;125687.94;6163521;23;20013;-84
2022/06/06 01:46:30;;;;;;;58.78;31.17;;;15.70;99.90;;;-144.05;78.84;125687.94;6162675;23;20005;-87
2022/06/06 01:48:58;;;;;;;57.55;32.95;;;15.70;99.90;;;-144.05;79.16;125687.94;6180883;23;20103;-87
2022/06/06 01:51:31;;;;;;;55.53;33.13;;;15.70;99.90;;;-144.05;79.33;125687.94;6217883;23;20087;-87
2022/06/06 01:53:58;;;;;;;58.13;33.45;;;15.70;99.90;;;-144.05;79.57;125687.94;6193086;23;20008;-87
2022/06/06 01:56:36;;;;;;;59.22;34.85;;;15.70;99.90;;;-144.05;79.52;125687.94;6193180;23;20015;-86
2022/06/06 01:59:04;;;;;;;57.28;32.95;;;15.70;99.90;;;-144.05;79.73;125687.94;6193692;23;20020;-86
2022/06/06 02:01:30;;;;;;;57.38;33.25;;;15.60;99.90;;;-144.05;79.67;125687.94;6193972;23;20012;-87
2022/06/06 02:03:57;;;;;;;51.97;32.45;;;15.60;99.90;;;-144.05;79.99;125687.94;6192525;23;20012;-86
2022/06/06 02:06:23;;;;;;;60.22;33.58;;;15.60;99.90;;;-144.05;80.89;125687.94;6193462;23;20016;-88
2022/06/06 02:08:51;;;;;;;56.20;33.97;;;15.60;99.90;;;-144.05;81.70;125687.94;6193040;23;20008;-86
2022/06/06 02:11:18;;;;;;;55.00;32.78;;;15.50;99.90;;;-144.05;82.51;125687.94;6193353;23;20012;-88
2022/06/06 02:13:46;;;;;;;51.72;31.90;;;15.50;99.90;;;-144.05;82.52;125687.94;6193977;23;20028;-89
2022/06/06 02:16:12;;;;;;;51.88;30.33;;;15.40;99.90;;;-144.05;82.76;125687.94;6193817;23;20036;-87
2022/06/06 02:18:38;;;;;;;50.80;30.23;;;15.40;99.90;;;-144.05;84.39;125687.94;6193967;23;20004;-85
2022/06/06 02:21:05;;;;;;;51.00;29.05;;;15.30;99.90;;;-144.05;85.54;125687.94;6193694;23;20435;-85
2022/06/06 02:23:31;;;;;;;48.10;27.60;;;15.20;99.90;;;-144.05;85.52;125687.94;6193265;23;20044;-85
2022/06/06 02:25:57;;;;;;;48.63;28.33;;;15.20;99.90;;;-144.05;85.68;125687.94;6192896;23;20004;-87
2022/06/06 02:28:25;;;;;;;45.20;26.85;;;15.10;99.90;;;-144.05;85.88;125687.94;6192386;23;20012;-88
2022/06/06 02:30:52;;;;;;;44.78;25.20;;;15.10;99.90;;;-144.05;85.83;125687.94;6218981;23;20005;-88
2022/06/06 02:33:18;;;;;;;43.80;25.88;;;15.10;99.90;;;-144.05;86.32;125687.94;6192929;23;20020;-88
2022/06/06 02:35:44;;;;;;;47.75;27.38;;;15.00;99.90;;;-144.05;86.90;125687.94;6194383;23;20015;-88
2022/06/06 02:38:13;;;;;;;41.22;26.63;;;15.00;99.90;;;-144.05;86.88;125687.94;6217877;23;20036;-84
2022/06/06 02:40:41;;;;;;;41.40;25.73;;;15.00;99.90;;;-144.05;87.19;125687.94;6217753;23;20004;-86
2022/06/06 02:43:07;;;;;;;47.08;27.02;;;15.00;99.90;;;-144.05;87.23;125687.94;6192225;23;20021;-85
2022/06/06 02:45:33;;;;;;;48.38;27.00;;;14.90;99.90;;;-144.05;87.58;125687.94;6192231;23;20084;-88
2022/06/06 02:47:59;;;;;;;48.17;28.02;;;14.90;99.90;;;-144.05;88.77;125687.94;6183901;23;20009;-86
2022/06/06 02:50:33;;;;;;;49.50;28.30;;;14.90;99.90;;;-144.05;89.49;125687.94;6160599;23;20066;-90
2022/06/06 02:52:59;;;;;;;47.47;28.25;;;14.80;99.90;;;-144.05;89.08;125687.94;6160352;23;20009;-87
2022/06/06 02:55:26;;;;;;;50.22;28.40;;;14.80;99.90;;;-144.05;89.80;125687.94;6161076;23;20044;-88
2022/06/06 02:57:54;;;;;;;52.95;28.77;;;14.80;99.90;;;-144.05;90.42;125687.94;6159671;23;20029;-88
2022/06/06 03:00:27;;;;;;;52.97;28.30;;;14.80;99.90;;;-144.05;90.12;125687.94;6160931;23;20079;-85
2022/06/06 03:02:55;;;;;;;51.65;29.08;;;14.70;99.90;;;-144.05;90.63;125687.94;6162476;23;20017;-85
2022/06/06 03:05:21;;;;;;;51.40;28.50;;;14.70;99.90;;;-144.05;90.20;125687.94;6163593;23;20028;-88
2022/06/06 03:08:41;;;;;;;53.55;28.88;;;14.70;99.90;;;-144.05;90.62;125687.94;6189645;23;20004;-86
2022/06/06 03:11:26;;;;;;;54.47;29.55;;;14.70;99.90;;;-144.05;90.64;125687.94;6164254;23;20012;-87
2022/06/06 03:14:33;;;;;;;49.50;28.80;;;14.70;99.90;;;-144.05;90.78;125687.94;6164825;23;20005;-91
2022/06/06 03:20:47;;;;;;;52.80;28.20;;;14.70;99.90;;;-144.05;90.91;125687.94;6190728;23;20067;-88
2022/06/06 03:24:01;;;;;;;55.70;28.85;;;14.70;99.90;;;-144.05;91.01;125687.94;6166424;23;19997;-88
2022/06/06 03:27:25;;;;;;;52.55;28.70;;;14.70;99.90;;;-144.05;91.03;125687.94;6231523;22;20460;-90
2022/06/06 03:30:17;;;;;;;48.33;26.30;;;14.70;99.90;;;-144.05;91.33;125687.94;6232968;22;20019;-86
2022/06/06 03:33:11;;;;;;;55.53;27.33;;;14.70;99.90;;;-144.05;91.75;125687.94;6231223;23;20099;-88
2022/06/06 03:36:03;;;;;;;45.97;24.67;;;14.70;99.90;;;-144.05;91.46;125687.94;6188945;23;20068;-87
2022/06/06 03:39:03;;;;;;;49.85;25.67;;;14.70;99.90;;;-144.05;91.37;125687.94;6190256;23;20012;-87
2022/06/06 03:42:21;;;;;;;48.15;24.75;;;14.70;99.90;;;-144.05;91.22;125687.94;6189273;23;20366;-90
2022/06/06 03:45:53;;;;;;;45.60;24.40;;;14.70;99.90;;;-144.05;91.21;125687.94;6191010;23;20019;-89
2022/06/06 03:49:07;;;;;;;49.08;24.63;;;14.70;99.90;;;-144.05;91.22;125687.94;6144448;23;20538;-86
2022/06/06 03:52:52;;;;;;;44.75;24.05;;;14.70;99.90;;;-144.05;91.28;125687.94;6191280;23;20044;-86
2022/06/06 03:56:05;;;;;;;44.38;21.77;;;14.70;99.90;;;-144.05;91.28;125687.94;6140364;23;20019;-85
2022/06/06 03:58:33;;;;;;;39.28;21.55;;;14.80;99.90;;;-144.05;91.07;125687.94;6190804;23;20020;-86
2022/06/06 04:01:09;;;;;;;35.08;19.90;;;14.80;99.90;;;-144.05;91.05;125687.94;6190627;23;20013;-88
2022/06/06 04:03:37;;;;;;;36.65;19.23;;;14.80;99.90;;;-144.05;90.98;125687.94;6215672;23;20296;-88
2022/06/06 04:06:05;;;;;;;36.05;19.02;;;14.80;99.90;;;-144.05;90.82;125687.94;6216531;23;20063;-88
2022/06/06 04:08:32;;;;;;;46.20;21.73;;;14.80;99.90;;;-144.05;90.93;125687.94;6190740;23;20451;-88
2022/06/06 04:11:29;;;;;;;35.55;20.15;;;14.80;99.90;;;-144.05;90.88;125687.94;6216078;23;20166;-88
2022/06/06 04:14:48;;;;;;;35.03;19.90;;;14.90;99.90;;;-144.05;91.51;125687.94;6190369;23;20005;-86
2022/06/06 04:17:57;;;;;;;37.67;20.20;;;14.90;99.90;;;-144.05;90.98;125687.94;6214854;23;20008;-87
2022/06/06 04:20:51;;;;;;;36.08;19.48;;;14.90;99.90;;;-144.05;90.95;125687.94;6190685;23;20095;-88
2022/06/06 04:23:51;;;;;;;34.75;19.52;;;14.90;99.90;;;-144.05;91.50;125687.94;6195448;23;20005;-90
2022/06/06 04:26:41;;;;;;;39.13;21.02;;;14.90;99.90;;;-144.05;90.60;125687.94;6195907;23;20039;-88
2022/06/06 04:29:57;;;;;;;37.42;20.17;;;15.00;99.90;;;-144.05;91.05;125687.94;6222676;23;20079;-88
2022/06/06 04:33:07;;;;;;;38.80;20.35;;;15.00;99.90;;;-144.05;91.12;125687.94;6114917;23;20013;-87
2022/06/06 04:36:12;;;;;;;33.67;18.45;;;15.00;99.90;;;-144.05;90.62;125687.94;6220252;23;20008;-89
2022/06/06 04:38:59;;;;;;;40.17;19.10;;;15.00;99.90;;;-144.05;90.60;125687.94;6196602;23;20013;-86
2022/06/06 04:41:48;;;;;;;31.63;18.13;;;15.00;99.90;;;-144.05;90.65;125687.94;6222264;23;20018;-86
2022/06/06 04:44:48;;;;;;;32.17;17.42;;;15.00;99.90;;;-144.05;89.65;125687.94;6220773;23;20066;-88
2022/06/06 04:47:36;;;;;;;26.65;16.17;;;15.10;99.90;;;-144.05;89.70;125687.94;6194940;23;20394;-87
2022/06/06 04:50:17;;;;;;;35.25;16.70;;;15.20;99.90;;;-144.05;88.76;125687.94;6219143;23;20419;-88
2022/06/06 04:52:53;;;;;;;24.67;14.40;;;15.20;99.90;;;-144.05;88.46;125687.94;6218864;23;20104;-86
2022/06/06 04:55:23;;;;;;;23.13;12.52;;;15.30;99.90;;;-144.05;86.47;125687.94;6194048;23;20004;-87
2022/06/06 04:57:55;;;;;;;18.08;11.82;;;15.30;99.90;;;-144.05;85.46;125687.94;6218315;23;20339;-86
2022/06/06 05:00:24;;;;;;;17.63;11.15;;;15.30;99.90;;;-144.05;85.01;125687.94;6192670;23;20004;-85
2022/06/06 05:02:50;;;;;;;18.38;11.27;;;15.40;99.90;;;-144.05;85.20;125687.94;6195346;23;20095;-87
2022/06/06 05:05:16;;;;;;;19.83;11.00;;;15.40;99.90;;;-144.05;84.64;125687.94;6229648;23;20000;-86
2022/06/06 05:08:28;;;;;;;18.40;10.02;;;15.40;99.90;;;-144.05;84.67;125687.94;6212588;23;20072;-87
2022/06/06 05:11:52;;;;;;;16.60;9.35;;;15.50;99.90;;;-144.05;83.45;125687.94;6190620;23;20005;-89
2022/06/06 05:15:13;;;;;;;14.52;9.57;;;15.60;99.90;;;-144.05;81.60;125687.94;6221393;23;20011;-87
2022/06/06 05:18:42;;;;;;;15.32;8.52;;;15.70;99.90;;;-144.05;82.64;125687.94;6195147;23;20026;-90
2022/06/06 05:21:49;;;;;;;16.13;8.98;;;15.80;99.90;;;-144.05;82.19;125687.94;6157933;23;20020;-87
2022/06/06 05:24:39;;;;;;;13.73;8.32;;;15.80;99.90;;;-144.05;81.61;125687.94;6194805;23;20016;-88
2022/06/06 05:27:44;;;;;;;13.38;7.97;;;15.70;99.90;;;-144.05;80.93;125687.94;6194632;23;20023;-89
2022/06/06 05:30:52;;;;;;;15.18;8.05;;;15.60;99.90;;;-144.05;80.79;125687.94;6194319;23;20015;-86
2022/06/06 05:33:55;;;;;;;11.55;7.68;;;15.60;99.90;;;-144.05;80.59;125687.94;6160140;23;20001;-88
2022/06/06 05:36:35;;;;;;;15.57;6.85;;;15.60;99.90;;;-144.05;79.37;125687.94;6222100;23;20031;-88
2022/06/06 05:39:17;;;;;;;12.88;7.28;;;15.80;99.90;;;-144.05;77.54;125687.94;6194835;23;20005;-88
2022/06/06 05:42:14;;;;;;;10.65;7.20;;;15.90;99.90;;;-144.05;77.81;125687.94;6195326;23;20366;-86
2022/06/06 05:45:13;;;;;;;11.30;7.10;;;16.00;99.90;;;-144.05;77.43;125687.94;6195210;23;20009;-88
2022/06/06 05:48:36;;;;;;;10.85;6.65;;;16.00;99.90;;;-144.05;75.40;125687.94;6196477;23;20004;-89
2022/06/06 05:51:23;;;;;;;9.57;6.25;;;16.10;99.90;;;-144.05;75.33;125687.94;6198479;23;19997;-87
2022/06/06 05:54:20;;;;;;;10.48;6.80;;;16.20;99.90;;;-144.05;74.79;125687.94;6196109;23;20000;-89
2022/06/06 05:57:14;;;;;;;11.00;6.00;;;16.50;99.90;;;-144.05;71.54;125687.94;6195196;23;20000;-88
2022/06/06 06:00:05;;;;;;;10.00;6.40;;;16.80;99.90;;;-144.05;68.28;125687.94;6221112;23;20095;-88
2022/06/06 06:03:28;;;;;;;10.48;6.03;;;17.30;99.90;;;-144.05;66.27;125687.94;6223466;23;20010;-87
2022/06/06 06:06:12;;;;;;;12.02;6.00;;;17.60;99.90;;;-144.05;65.36;125687.94;6157511;23;20031;-88
2022/06/06 06:09:42;;;;;;;8.45;5.82;;;17.70;99.90;;;-144.05;65.31;125687.94;6220218;23;20005;-86
2022/06/06 06:12:33;;;;;;;8.35;5.93;;;17.70;99.90;;;-144.05;65.82;125687.94;6221595;23;20055;-88
2022/06/06 06:15:31;;;;;;;8.90;5.60;;;17.60;99.90;;;-144.05;66.31;125687.94;6195243;23;20005;-88
2022/06/06 06:18:02;;;;;;;10.95;6.47;;;17.70;99.90;;;-144.05;64.87;125687.94;6196041;23;20004;-87
2022/06/06 06:20:38;;;;;;;10.77;6.07;;;17.80;99.90;;;-144.05;64.19;125687.94;6195859;23;20036;-88
2022/06/06 06:23:13;;;;;;;9.43;5.68;;;18.00;99.90;;;-144.05;62.33;125687.94;6196569;23;20016;-88
2022/06/06 06:25:41;;;;;;;7.57;5.35;;;18.30;99.90;;;-144.05;60.53;125687.94;6220739;23;20028;-87
2022/06/06 06:28:12;;;;;;;10.05;5.63;;;18.50;99.90;;;-144.05;61.25;125687.94;6195395;23;20004;-89
2022/06/06 06:31:21;;;;;;;11.90;5.78;;;18.50;99.90;;;-144.05;59.65;125687.94;6195195;23;20013;-89
2022/06/06 06:34:48;;;;;;;11.63;5.35;;;18.60;99.90;;;-144.05;62.09;125687.94;6195574;23;20028;-89
2022/06/06 06:37:47;;;;;;;5.80;4.43;;;18.10;99.90;;;-144.05;61.37;125687.94;6076649;23;20026;-87
2022/06/06 06:41:05;;;;;;;10.75;5.18;;;18.10;99.90;;;-144.05;59.68;125687.94;6195148;23;20012;-87
2022/06/06 06:44:09;;;;;;;8.77;4.72;;;18.50;99.90;;;-144.05;57.18;125687.94;6221493;23;20080;-87
2022/06/06 06:46:50;;;;;;;7.75;3.65;;;19.00;99.90;;;-144.05;56.72;125687.94;6232865;23;20005;-87
2022/06/06 06:49:47;;;;;;;8.20;4.85;;;19.50;99.90;;;-144.05;56.34;125687.94;6233060;23;20012;-86
2022/06/06 06:52:53;;;;;;;6.18;4.70;;;19.30;99.90;;;-144.05;58.54;125687.94;6224041;23;20009;-90
2022/06/06 06:56:00;;;;;;;7.50;5.38;;;18.70;99.90;;;-144.05;59.50;125687.94;6221120;23;20000;-87
2022/06/06 06:58:53;;;;;;;;;;;18.50;99.90;;;-144.05;58.54;125687.94;6194853;23;20008;-86
2022/06/06 07:08:48;;;;;;;8.13;3.38;;;18.70;99.90;;;-144.05;53.50;125687.94;6221712;23;20051;-86
2022/06/06 07:11:38;;;;;;;5.47;2.85;;;19.00;99.90;;;-144.05;53.05;125687.94;6195297;23;20099;-89
2022/06/06 07:14:39;;;;;;;4.85;3.45;;;19.30;99.90;;;-144.05;53.20;125687.94;6195890;23;20311;-86
2022/06/06 07:17:10;;;;;;;4.38;3.20;;;19.10;99.90;;;-144.05;52.91;125687.94;6198888;23;20000;-86
2022/06/06 07:20:08;;;;;;;8.77;3.60;;;19.20;99.90;;;-144.05;51.84;125687.94;6210695;23;20004;-85
2022/06/06 07:23:02;;;;;;;4.85;3.50;;;19.50;99.90;;;-144.05;53.38;125687.94;6228575;23;20409;-88
2022/06/06 07:25:54;;;;;;;4.95;3.60;;;19.20;99.90;;;-144.05;53.58;125687.94;6198116;23;20047;-87
2022/06/06 07:28:24;;;;;;;4.90;3.10;;;19.10;99.90;;;-144.05;52.28;125687.94;6223825;23;20005;-86
2022/06/06 07:31:17;;;;;;;6.88;3.17;;;19.40;99.90;;;-144.05;51.31;125687.94;6198097;23;20008;-90
2022/06/06 07:34:19;;;;;;;5.65;2.90;;;19.70;99.90;;;-144.05;50.03;125687.94;6223789;23;20430;-88
2022/06/06 07:37:06;;;;;;;5.07;2.88;;;20.20;99.90;;;-144.05;49.18;125687.94;6222268;23;20052;-87
2022/06/06 07:39:48;;;;;;;9.00;2.80;;;20.00;99.90;;;-144.05;49.98;125687.94;6197832;23;20092;-88
2022/06/06 07:42:50;;;;;;;4.10;3.25;;;19.40;99.90;;;-144.05;50.39;125687.94;6224193;23;20407;-86
2022/06/06 07:45:34;;;;;;;5.30;2.80;;;19.20;99.90;;;-144.05;50.00;125687.94;6198503;23;20005;-88
2022/06/06 07:48:34;;;;;;;6.68;2.70;;;19.60;99.90;;;-144.05;48.39;125687.94;6224503;23;20087;-88
2022/06/06 07:51:13;;;;;;;5.30;2.22;;;20.00;99.90;;;-144.05;47.14;125687.94;6199702;23;20016;-89
2022/06/06 07:54:10;;;;;;;3.50;2.25;;;20.50;99.90;;;-144.05;45.82;125687.94;6199095;23;20020;-87
2022/06/06 07:57:37;;;;;;;3.45;2.30;;;20.70;99.90;;;-144.05;46.66;125687.94;6225598;23;20009;-87
2022/06/06 08:00:20;;;;;;;3.72;2.10;;;20.50;99.90;;;-144.05;45.61;125687.94;6173521;23;20012;-86
2022/06/06 08:03:23;;;;;;;3.75;1.90;;;20.70;99.90;;;-144.05;45.02;125687.94;6225079;23;20027;-87
2022/06/06 08:06:30;;;;;;;3.92;1.88;;;20.80;99.90;;;-144.05;46.00;125687.94;6225107;23;20000;-88
2022/06/06 08:09:44;;;;;;;;;;;20.60;99.90;;;-144.05;44.04;125687.94;6224930;23;20418;-86
2022/06/06 08:12:46;;;;;;;3.70;1.92;;;20.80;99.90;;;-144.05;44.35;125687.94;6198574;23;19911;-88
2022/06/06 08:15:22;;;;;;;3.40;1.80;;;21.30;99.90;;;-144.05;43.00;125687.94;6224349;23;20434;-87
2022/06/06 08:18:22;;;;;;;2.88;1.35;;;21.50;99.90;;;-144.05;42.55;125687.94;6199753;23;20016;-89
2022/06/06 08:21:19;;;;;;;2.58;1.60;;;21.60;99.90;;;-144.05;42.29;125687.94;6226002;23;20001;-90
2022/06/06 08:23:48;;;;;;;2.03;1.60;;;21.70;99.90;;;-144.05;41.41;125687.94;6200530;23;20012;-88
2022/06/06 08:26:16;;;;;;;2.42;1.65;;;21.90;99.70;;;-144.05;42.12;125687.94;6226232;23;20298;-88
2022/06/06 08:28:45;;;;;;;2.17;1.70;;;22.30;99.90;;;-144.05;41.40;125687.94;6230033;23;20028;-90
2022/06/06 08:31:11;;;;;;;2.90;1.65;;;22.70;99.90;;;-144.05;41.13;125687.94;6229652;23;20374;-86
2022/06/06 08:33:37;;;;;;;2.92;1.60;;;22.60;98.50;;;-144.05;41.82;125687.94;6208426;23;20009;-89
2022/06/06 08:36:36;;;;;;;2.83;1.73;;;22.20;99.40;;;-144.05;43.20;125687.94;6226673;23;20016;-86
2022/06/06 08:39:51;;;;;;;2.47;1.42;;;21.50;99.90;;;-144.05;43.02;125687.94;6199510;23;20008;-88
2022/06/06 08:42:57;;;;;;;3.35;1.60;;;21.60;99.90;;;-144.05;42.96;125687.94;6197694;23;20008;-88
2022/06/06 08:45:56;;;;;;;5.43;1.50;;;21.60;99.90;;;-144.05;42.60;125687.94;6198792;23;20015;-90
2022/06/06 08:48:52;;;;;;;3.03;1.55;;;21.10;99.90;;;-144.05;41.76;125687.94;6199931;23;20004;-87
2022/06/06 08:51:58;;;;;;;2.30;1.35;;;21.30;99.00;;;-144.05;41.05;125687.94;6198973;23;20000;-87
2022/06/06 08:55:19;;;;;;;3.10;1.40;;;21.70;97.80;;;-144.05;40.02;125687.94;6224074;23;20007;-90
2022/06/06 08:58:20;;;;;;;2.83;1.10;;;21.80;96.70;;;-144.05;40.51;125687.94;6201829;23;20007;-89
2022/06/06 09:01:56;;;;;;;3.08;1.08;;;21.70;94.60;;;-144.05;40.59;125687.94;6197076;23;20008;-90
2022/06/06 09:04:58;;;;;;;3.25;1.30;;;22.00;96.20;;;-144.05;39.51;125687.94;6225030;23;20061;-86
2022/06/06 09:08:18;;;;;;;3.35;1.33;;;22.10;91.80;;;-144.05;39.53;125687.94;6198488;23;20096;-88
2022/06/06 09:11:39;;;;;;;1.27;0.90;;;21.70;91.70;;;-144.05;39.67;125687.94;6197602;23;20028;-88
2022/06/06 09:14:49;;;;;;;1.33;1.08;;;21.40;90.20;;;-144.05;40.25;125687.94;6195677;23;20004;-88
2022/06/06 09:18:01;;;;;;;4.22;0.73;;;21.30;91.10;;;-144.05;39.51;125687.94;6157701;23;20038;-89
2022/06/06 09:21:18;;;;;;;2.35;0.88;;;21.10;88.50;;;-144.05;39.82;125687.94;6198244;23;20005;-90
2022/06/06 09:24:28;;;;;;;2.15;1.00;;;21.20;91.60;;;-144.05;40.16;125687.94;6195507;22;20185;-84
2022/06/06 09:27:52;;;;;;;3.45;0.85;;;21.00;92.80;;;-144.05;39.79;125687.94;6198250;23;20016;-81
2022/06/06 09:31:44;;;;;;;5.28;1.05;;;21.00;90.60;;;-144.05;40.17;125687.94;6218304;23;20015;-85
2022/06/06 09:34:53;;;;;;;3.25;1.08;;;21.40;90.50;;;-144.05;39.64;125687.94;6098997;23;20017;-84
2022/06/06 09:38:09;;;;;;;2.42;1.00;;;21.60;89.70;;;-144.05;40.75;125687.94;6187672;23;20009;-84
2022/06/06 09:41:12;;;;;;;2.65;1.00;;;21.70;93.40;;;-144.05;39.32;125687.94;6186585;23;20093;-85
2022/06/06 09:44:03;;;;;;;3.13;1.00;;;21.90;90.80;;;-144.05;40.00;125687.94;6186978;23;20037;-84
2022/06/06 09:47:10;;;;;;;4.50;1.10;;;21.80;90.80;;;-144.05;40.54;125687.94;6188827;23;20005;-86
2022/06/06 09:50:20;;;;;;;2.72;0.93;;;21.80;92.30;;;-144.05;40.29;125687.94;6190086;23;20099;-84
2022/06/06 09:53:39;;;;;;;3.20;1.25;;;21.30;92.10;;;-144.05;41.33;125687.94;6187687;23;20005;-85
2022/06/06 10:00:01;;;;;;;1.63;0.80;;;20.60;96.50;;;-144.05;39.98;125687.94;6188410;23;20089;-85
2022/06/06 10:03:34;;;;;;;1.08;0.90;;;21.50;94.60;;;-144.05;40.91;125687.94;6193485;23;20379;-83
2022/06/06 10:06:34;;;;;;;2.22;0.80;;;21.60;94.40;;;-144.05;40.68;125687.94;6184344;23;20023;-85
2022/06/06 10:09:46;;;;;;;1.17;0.80;;;21.00;93.10;;;-144.05;42.68;125687.94;6186494;23;20009;-85
2022/06/06 10:13:03;;;;;;;4.38;0.75;;;20.40;97.90;;;-144.05;48.94;125687.94;6188257;23;20005;-88
2022/06/06 10:16:28;;;;;;;1.08;0.70;;;19.60;99.90;;;-144.05;52.31;125687.94;6188793;23;20013;-86
2022/06/06 10:19:33;;;;;;;3.97;1.15;;;18.50;99.90;;;-144.05;57.07;125687.94;6161877;23;20012;-86
2022/06/06 10:22:13;;;;;;;1.75;1.20;;;17.60;99.90;;;-144.05;60.08;125687.94;6186856;23;20342;-87
2022/06/06 10:25:28;;;;;;;2.28;0.93;;;17.10;99.90;;;-144.05;59.76;125687.94;6184926;23;20384;-85
2022/06/06 10:28:19;;;;;;;2.10;1.33;;;17.10;99.90;;;-144.05;60.52;125687.94;6184604;23;20009;-86
2022/06/06 10:31:40;;;;;;;2.78;1.30;;;17.50;99.90;;;-144.05;60.55;125687.94;6186800;23;20005;-86
2022/06/06 10:34:37;;;;;;;3.97;1.10;;;18.50;99.90;;;-144.05;57.52;125687.94;6139038;23;20023;-84
2022/06/06 10:37:58;;;;;;;2.55;1.20;;;19.60;99.90;;;-144.05;53.88;125687.94;6186454;23;20037;-86
2022/06/06 10:40:56;;;;;;;2.65;1.10;;;20.40;99.90;;;-144.05;51.06;125687.94;6187387;23;20024;-85
2022/06/06 10:43:49;;;;;;;2.85;0.95;;;21.00;99.90;;;-144.05;50.67;125687.94;6190002;23;20320;-86
2022/06/06 10:46:46;;;;;;;3.80;1.10;;;21.20;99.90;;;-144.05;50.32;125687.94;6189447;23;20001;-85
2022/06/06 10:49:49;;;;;;;1.98;1.00;;;21.40;99.90;;;-144.05;52.93;125687.94;6189541;23;20028;-83
2022/06/06 10:52:56;;;;;;;2.63;0.93;;;21.60;99.90;;;-144.05;47.25;125687.94;6191599;23;20104;-86
2022/06/06 10:56:12;;;;;;;2.80;1.00;;;21.90;99.90;;;-144.05;45.05;125687.94;6189866;23;20025;-83
2022/06/06 10:59:39;;;;;;;3.70;1.10;;;22.00;99.90;;;-144.05;44.22;125687.94;6200787;23;20024;-84
2022/06/06 11:02:33;;;;;;;2.00;0.88;;;21.90;99.90;;;-144.05;45.30;125687.94;6193418;23;20092;-84
2022/06/06 11:05:23;;;;;;;1.95;0.98;;;22.30;99.90;;;-144.05;41.08;125687.94;6192114;23;20032;-86
2022/06/06 11:08:54;;;;;;;1.05;0.70;;;22.60;99.90;;;-144.05;42.07;125687.94;6196379;23;20009;-82
2022/06/06 11:12:17;;;;;;;2.25;0.52;;;22.70;99.90;;;-144.05;42.62;125687.94;6169679;23;20029;-83
2022/06/06 11:14:45;;;;;;;2.58;0.90;;;22.50;99.90;;;-144.05;43.38;125687.94;6195850;23;20009;-83
2022/06/06 11:17:39;;;;;;;1.58;0.70;;;22.50;99.90;;;-144.05;42.94;125687.94;6189723;23;20439;-84
2022/06/06 11:20:36;;;;;;;1.88;0.65;;;22.50;99.90;;;-144.05;41.07;125687.94;6190033;23;20002;-85
2022/06/06 11:23:47;;;;;;;1.55;0.57;;;22.40;99.40;;;-144.05;42.51;125687.94;6189196;23;20335;-85
2022/06/06 11:26:43;;;;;;;5.22;0.73;;;22.40;99.90;;;-144.05;40.63;125687.94;6188579;23;20343;-85
2022/06/06 11:29:33;;;;;;;2.73;1.07;;;23.10;98.80;;;-144.05;40.11;125687.94;6189580;23;20005;-85
2022/06/06 11:33:05;;;;;;;1.95;0.65;;;23.30;95.30;;;-144.05;38.47;125687.94;6188644;23;20270;-84
2022/06/06 11:36:14;;;;;;;1.58;0.68;;;23.50;91.70;;;-144.05;40.72;125687.94;6188100;23;20304;-85
2022/06/06 11:39:41;;;;;;;2.10;0.40;;;22.80;93.40;;;-144.05;40.14;125687.94;6186838;23;20015;-82
2022/06/06 11:43:05;;;;;;;2.38;0.60;;;22.40;92.40;;;-144.05;40.38;125687.94;6186498;23;20047;-83
2022/06/06 11:46:28;;;;;;;1.30;0.50;;;22.30;94.00;;;-144.05;39.10;125687.94;6189517;23;20029;-86
2022/06/06 11:49:53;;;;;;;1.00;0.30;;;22.50;90.70;;;-144.05;37.83;125687.94;6155852;23;20036;-82
2022/06/06 11:53:27;;;;;;;0.77;0.40;;;22.50;86.20;;;-144.05;37.87;125687.94;6188271;23;20005;-85